sensor_id;sensor_type;location;lat;lon;timestamp;P1;durP1;ratioP1;P2;durP2;ratioP2
37365;SDS011;23239;51.504;7.456;2023-08-01T00:00:00;1.5;;;1.1;;
37365;SDS011;23239;51.504;7.456;2023-08-01T00:01:00;1.5;;;1.1;;
37365;SDS011;23239;51.504;7.456;2023-08-01T00:02:00;1.3;;;1.2;;
37365;SDS011;23239;51.504;7.456;2023-08-01T00:03:00;1.3;;;1.2;;
37365;SDS011;23239;51.504;7.456;2023-08-01T00:04:00;1.3;;;1.2;;
37365;SDS011;23239;51.504;7.456;2023-08-01T00:05:00;1.3;;;1.2;;
37365;SDS011;23239;51.504;7.456;2023-08-01T00:06:00;1.3;;;1.2;;
37365;SDS011;23239;51.504;7.456;2023-08-01T00:07:00;1.9;;;1.1;;
37365;SDS011;23239;51.504;7.456;2023-08-01T00:08:00;1.9;;;1.1;;
37365;SDS011;23239;51.504;7.456;2023-08-01T00:09:00;1.9;;;1.1;;
37365;SDS011;23239;51.504;7.456;2023-08-01T00:10:00;1.9;;;1.1;;
37365;SDS011;23239;51.504;7.456;2023-08-01T00:11:00;1.9;;;1.1;;
37365;SDS011;23239;51.504;7.456;2023-08-01T00:12:00;2.0;;;1.1;;
37365;SDS011;23239;51.504;7.456;2023-08-01T00:13:00;2.0;;;1.1;;
37365;SDS011;23239;51.504;7.456;2023-08-01T00:14:00;2.0;;;1.1;;
37365;SDS011;23239;51.504;7.456;2023-08-01T00:15:00;2.0;;;1.1;;
37365;SDS011;23239;51.504;7.456;2023-08-01T00:16:00;2.0;;;1.1;;
37365;SDS011;23239;51.504;7.456;2023-08-01T00:17:00;1.2;;;1.1;;
37365;SDS011;23239;51.504;7.456;2023-08-01T00:18:00;1.2;;;1.1;;
37365;SDS011;23239;51.504;7.456;2023-08-01T00:19:00;1.2;;;1.1;;
37365;SDS011;23239;51.504;7.456;2023-08-01T00:20:00;1.2;;;1.1;;
37365;SDS011;23239;51.504;7.456;2023-08-01T00:21:00;1.2;;;1.1;;
37365;SDS011;23239;51.504;7.456;2023-08-01T00:22:00;16.9;;;2.6;;
37365;SDS011;23239;51.504;7.456;2023-08-01T00:23:00;16.9;;;2.6;;
37365;SDS011;23239;51.504;7.456;2023-08-01T00:24:00;16.9;;;2.6;;
37365;SDS011;23239;51.504;7.456;2023-08-01T00:25:00;16.9;;;2.6;;
37365;SDS011;23239;51.504;7.456;2023-08-01T00:26:00;16.9;;;2.6;;
37365;SDS011;23239;51.504;7.456;2023-08-01T00:27:00;11.4;;;2.5;;
37365;SDS011;23239;51.504;7.456;2023-08-01T00:28:00;11.4;;;2.5;;
37365;SDS011;23239;51.504;7.456;2023-08-01T00:29:00;11.4;;;2.5;;
37365;SDS011;23239;51.504;7.456;2023-08-01T00:30:00;11.4;;;2.5;;
37365;SDS011;23239;51.504;7.456;2023-08-01T00:31:02;11.4;;;2.5;;
37365;SDS011;23239;51.504;7.456;2023-08-01T00:32:00;2.1;;;1.5;;
37365;SDS011;23239;51.504;7.456;2023-08-01T00:33:00;2.1;;;1.5;;
37365;SDS011;23239;51.504;7.456;2023-08-01T00:34:00;2.1;;;1.5;;
37365;SDS011;23239;51.504;7.456;2023-08-01T00:35:00;2.1;;;1.5;;
37365;SDS011;23239;51.504;7.456;2023-08-01T00:36:00;2.1;;;1.5;;
37365;SDS011;23239;51.504;7.456;2023-08-01T00:37:00;1.3;;;1.1;;
37365;SDS011;23239;51.504;7.456;2023-08-01T00:38:00;1.3;;;1.1;;
37365;SDS011;23239;51.504;7.456;2023-08-01T00:39:00;1.3;;;1.1;;
37365;SDS011;23239;51.504;7.456;2023-08-01T00:40:00;1.3;;;1.1;;
37365;SDS011;23239;51.504;7.456;2023-08-01T00:41:00;1.3;;;1.1;;
37365;SDS011;23239;51.504;7.456;2023-08-01T00:42:00;3.3;;;1.2;;
37365;SDS011;23239;51.504;7.456;2023-08-01T00:43:00;3.3;;;1.2;;
37365;SDS011;23239;51.504;7.456;2023-08-01T00:44:00;3.3;;;1.2;;
37365;SDS011;23239;51.504;7.456;2023-08-01T00:45:00;3.3;;;1.2;;
37365;SDS011;23239;51.504;7.456;2023-08-01T00:46:00;3.3;;;1.2;;
37365;SDS011;23239;51.504;7.456;2023-08-01T00:47:00;1.3;;;1.0;;
37365;SDS011;23239;51.504;7.456;2023-08-01T00:48:00;1.3;;;1.0;;
37365;SDS011;23239;51.504;7.456;2023-08-01T00:49:00;1.3;;;1.0;;
37365;SDS011;23239;51.504;7.456;2023-08-01T00:50:00;1.3;;;1.0;;
37365;SDS011;23239;51.504;7.456;2023-08-01T00:51:02;1.3;;;1.0;;
37365;SDS011;23239;51.504;7.456;2023-08-01T00:52:00;2.1;;;1.9;;
37365;SDS011;23239;51.504;7.456;2023-08-01T00:53:00;2.1;;;1.9;;
37365;SDS011;23239;51.504;7.456;2023-08-01T00:54:00;2.1;;;1.9;;
37365;SDS011;23239;51.504;7.456;2023-08-01T00:55:00;2.1;;;1.9;;
37365;SDS011;23239;51.504;7.456;2023-08-01T00:56:00;2.1;;;1.9;;
37365;SDS011;23239;51.504;7.456;2023-08-01T00:57:00;1.9;;;1.0;;
37365;SDS011;23239;51.504;7.456;2023-08-01T00:58:00;1.9;;;1.0;;
37365;SDS011;23239;51.504;7.456;2023-08-01T00:59:00;1.9;;;1.0;;
37365;SDS011;23239;51.504;7.456;2023-08-01T01:00:00;1.9;;;1.0;;
37365;SDS011;23239;51.504;7.456;2023-08-01T01:01:00;1.9;;;1.0;;
37365;SDS011;23239;51.504;7.456;2023-08-01T01:02:00;0.7;;;0.7;;
37365;SDS011;23239;51.504;7.456;2023-08-01T01:03:00;0.7;;;0.7;;
37365;SDS011;23239;51.504;7.456;2023-08-01T01:04:00;0.7;;;0.7;;
37365;SDS011;23239;51.504;7.456;2023-08-01T01:05:00;0.7;;;0.7;;
37365;SDS011;23239;51.504;7.456;2023-08-01T01:06:01;0.7;;;0.7;;
37365;SDS011;23239;51.504;7.456;2023-08-01T01:07:02;1.5;;;0.8;;
37365;SDS011;23239;51.504;7.456;2023-08-01T01:08:00;1.5;;;0.8;;
37365;SDS011;23239;51.504;7.456;2023-08-01T01:09:00;1.5;;;0.8;;
37365;SDS011;23239;51.504;7.456;2023-08-01T01:10:00;1.5;;;0.8;;
37365;SDS011;23239;51.504;7.456;2023-08-01T01:11:00;1.5;;;0.8;;
37365;SDS011;23239;51.504;7.456;2023-08-01T01:12:00;2.9;;;1.2;;
37365;SDS011;23239;51.504;7.456;2023-08-01T01:13:00;2.9;;;1.2;;
37365;SDS011;23239;51.504;7.456;2023-08-01T01:14:00;2.9;;;1.2;;
37365;SDS011;23239;51.504;7.456;2023-08-01T01:15:00;2.9;;;1.2;;
37365;SDS011;23239;51.504;7.456;2023-08-01T01:16:00;2.9;;;1.2;;
37365;SDS011;23239;51.504;7.456;2023-08-01T01:17:00;1.1;;;1.0;;
37365;SDS011;23239;51.504;7.456;2023-08-01T01:18:00;1.1;;;1.0;;
37365;SDS011;23239;51.504;7.456;2023-08-01T01:19:00;1.1;;;1.0;;
37365;SDS011;23239;51.504;7.456;2023-08-01T01:20:00;1.1;;;1.0;;
37365;SDS011;23239;51.504;7.456;2023-08-01T01:21:00;1.1;;;1.0;;
37365;SDS011;23239;51.504;7.456;2023-08-01T01:22:00;1.9;;;1.2;;
37365;SDS011;23239;51.504;7.456;2023-08-01T01:23:00;1.9;;;1.2;;
37365;SDS011;23239;51.504;7.456;2023-08-01T01:24:00;1.9;;;1.2;;
37365;SDS011;23239;51.504;7.456;2023-08-01T01:25:00;1.9;;;1.2;;
37365;SDS011;23239;51.504;7.456;2023-08-01T01:26:00;1.9;;;1.2;;
37365;SDS011;23239;51.504;7.456;2023-08-01T01:27:00;2.0;;;1.6;;
37365;SDS011;23239;51.504;7.456;2023-08-01T01:28:00;2.0;;;1.6;;
37365;SDS011;23239;51.504;7.456;2023-08-01T01:29:00;2.0;;;1.6;;
37365;SDS011;23239;51.504;7.456;2023-08-01T01:30:00;2.0;;;1.6;;
37365;SDS011;23239;51.504;7.456;2023-08-01T01:31:00;2.0;;;1.6;;
37365;SDS011;23239;51.504;7.456;2023-08-01T01:32:00;2.0;;;1.8;;
37365;SDS011;23239;51.504;7.456;2023-08-01T01:33:00;2.0;;;1.8;;
37365;SDS011;23239;51.504;7.456;2023-08-01T01:34:00;2.0;;;1.8;;
37365;SDS011;23239;51.504;7.456;2023-08-01T01:35:01;2.0;;;1.8;;
37365;SDS011;23239;51.504;7.456;2023-08-01T01:36:00;2.0;;;1.8;;
37365;SDS011;23239;51.504;7.456;2023-08-01T01:37:00;2.5;;;1.9;;
37365;SDS011;23239;51.504;7.456;2023-08-01T01:38:01;2.5;;;1.9;;
37365;SDS011;23239;51.504;7.456;2023-08-01T01:39:00;2.5;;;1.9;;
37365;SDS011;23239;51.504;7.456;2023-08-01T01:40:00;2.5;;;1.9;;
37365;SDS011;23239;51.504;7.456;2023-08-01T01:41:00;2.5;;;1.9;;
37365;SDS011;23239;51.504;7.456;2023-08-01T01:42:00;2.9;;;2.2;;
37365;SDS011;23239;51.504;7.456;2023-08-01T01:43:00;2.9;;;2.2;;
37365;SDS011;23239;51.504;7.456;2023-08-01T01:44:00;2.9;;;2.2;;
37365;SDS011;23239;51.504;7.456;2023-08-01T01:45:00;2.9;;;2.2;;
37365;SDS011;23239;51.504;7.456;2023-08-01T01:46:00;2.9;;;2.2;;
37365;SDS011;23239;51.504;7.456;2023-08-01T01:47:00;2.4;;;2.2;;
37365;SDS011;23239;51.504;7.456;2023-08-01T01:48:00;2.4;;;2.2;;
37365;SDS011;23239;51.504;7.456;2023-08-01T01:49:00;2.4;;;2.2;;
37365;SDS011;23239;51.504;7.456;2023-08-01T01:50:00;2.4;;;2.2;;
37365;SDS011;23239;51.504;7.456;2023-08-01T01:51:00;2.4;;;2.2;;
37365;SDS011;23239;51.504;7.456;2023-08-01T01:52:00;4.1;;;2.6;;
37365;SDS011;23239;51.504;7.456;2023-08-01T01:53:00;4.1;;;2.6;;
37365;SDS011;23239;51.504;7.456;2023-08-01T01:54:00;4.1;;;2.6;;
37365;SDS011;23239;51.504;7.456;2023-08-01T01:55:00;4.1;;;2.6;;
37365;SDS011;23239;51.504;7.456;2023-08-01T01:56:00;4.1;;;2.6;;
37365;SDS011;23239;51.504;7.456;2023-08-01T01:57:00;3.6;;;2.6;;
37365;SDS011;23239;51.504;7.456;2023-08-01T01:58:00;3.6;;;2.6;;
37365;SDS011;23239;51.504;7.456;2023-08-01T01:59:00;3.6;;;2.6;;
37365;SDS011;23239;51.504;7.456;2023-08-01T02:00:00;3.6;;;2.6;;
37365;SDS011;23239;51.504;7.456;2023-08-01T02:01:00;3.6;;;2.6;;
37365;SDS011;23239;51.504;7.456;2023-08-01T02:02:00;4.0;;;2.9;;
37365;SDS011;23239;51.504;7.456;2023-08-01T02:03:00;4.0;;;2.9;;
37365;SDS011;23239;51.504;7.456;2023-08-01T02:04:00;4.0;;;2.9;;
37365;SDS011;23239;51.504;7.456;2023-08-01T02:05:00;4.0;;;2.9;;
37365;SDS011;23239;51.504;7.456;2023-08-01T02:06:00;4.0;;;2.9;;
37365;SDS011;23239;51.504;7.456;2023-08-01T02:07:00;4.7;;;2.7;;
37365;SDS011;23239;51.504;7.456;2023-08-01T02:08:00;4.7;;;2.7;;
37365;SDS011;23239;51.504;7.456;2023-08-01T02:09:00;4.7;;;2.7;;
37365;SDS011;23239;51.504;7.456;2023-08-01T02:10:00;4.7;;;2.7;;
37365;SDS011;23239;51.504;7.456;2023-08-01T02:11:00;4.7;;;2.7;;
37365;SDS011;23239;51.504;7.456;2023-08-01T02:12:00;3.3;;;2.4;;
37365;SDS011;23239;51.504;7.456;2023-08-01T02:13:00;3.3;;;2.4;;
37365;SDS011;23239;51.504;7.456;2023-08-01T02:14:00;3.3;;;2.4;;
37365;SDS011;23239;51.504;7.456;2023-08-01T02:15:00;3.3;;;2.4;;
37365;SDS011;23239;51.504;7.456;2023-08-01T02:16:00;3.3;;;2.4;;
37365;SDS011;23239;51.504;7.456;2023-08-01T02:17:00;2.6;;;2.2;;
37365;SDS011;23239;51.504;7.456;2023-08-01T02:18:00;2.6;;;2.2;;
37365;SDS011;23239;51.504;7.456;2023-08-01T02:19:00;2.6;;;2.2;;
37365;SDS011;23239;51.504;7.456;2023-08-01T02:20:00;2.6;;;2.2;;
37365;SDS011;23239;51.504;7.456;2023-08-01T02:21:00;2.6;;;2.2;;
37365;SDS011;23239;51.504;7.456;2023-08-01T02:22:00;1.8;;;1.6;;
37365;SDS011;23239;51.504;7.456;2023-08-01T02:23:00;1.8;;;1.6;;
37365;SDS011;23239;51.504;7.456;2023-08-01T02:24:00;1.8;;;1.6;;
37365;SDS011;23239;51.504;7.456;2023-08-01T02:25:00;1.8;;;1.6;;
37365;SDS011;23239;51.504;7.456;2023-08-01T02:26:00;1.8;;;1.6;;
37365;SDS011;23239;51.504;7.456;2023-08-01T02:27:00;1.8;;;1.6;;
37365;SDS011;23239;51.504;7.456;2023-08-01T02:28:00;1.8;;;1.6;;
37365;SDS011;23239;51.504;7.456;2023-08-01T02:29:00;1.8;;;1.6;;
37365;SDS011;23239;51.504;7.456;2023-08-01T02:30:00;1.8;;;1.6;;
37365;SDS011;23239;51.504;7.456;2023-08-01T02:31:00;1.8;;;1.6;;
37365;SDS011;23239;51.504;7.456;2023-08-01T02:32:00;2.8;;;1.7;;
37365;SDS011;23239;51.504;7.456;2023-08-01T02:33:00;2.8;;;1.7;;
37365;SDS011;23239;51.504;7.456;2023-08-01T02:34:00;2.8;;;1.7;;
37365;SDS011;23239;51.504;7.456;2023-08-01T02:35:00;2.8;;;1.7;;
37365;SDS011;23239;51.504;7.456;2023-08-01T02:36:00;2.8;;;1.7;;
37365;SDS011;23239;51.504;7.456;2023-08-01T02:37:00;2.0;;;1.7;;
37365;SDS011;23239;51.504;7.456;2023-08-01T02:38:00;2.0;;;1.7;;
37365;SDS011;23239;51.504;7.456;2023-08-01T02:39:00;2.0;;;1.7;;
37365;SDS011;23239;51.504;7.456;2023-08-01T02:40:01;2.0;;;1.7;;
37365;SDS011;23239;51.504;7.456;2023-08-01T02:41:00;2.0;;;1.7;;
37365;SDS011;23239;51.504;7.456;2023-08-01T02:42:00;3.0;;;1.9;;
37365;SDS011;23239;51.504;7.456;2023-08-01T02:43:00;3.0;;;1.9;;
37365;SDS011;23239;51.504;7.456;2023-08-01T02:44:00;3.0;;;1.9;;
37365;SDS011;23239;51.504;7.456;2023-08-01T02:45:00;3.0;;;1.9;;
37365;SDS011;23239;51.504;7.456;2023-08-01T02:46:00;3.0;;;1.9;;
37365;SDS011;23239;51.504;7.456;2023-08-01T02:47:00;3.6;;;2.7;;
37365;SDS011;23239;51.504;7.456;2023-08-01T02:48:00;3.6;;;2.7;;
37365;SDS011;23239;51.504;7.456;2023-08-01T02:49:00;3.6;;;2.7;;
37365;SDS011;23239;51.504;7.456;2023-08-01T02:50:00;3.6;;;2.7;;
37365;SDS011;23239;51.504;7.456;2023-08-01T02:51:00;3.6;;;2.7;;
37365;SDS011;23239;51.504;7.456;2023-08-01T02:52:00;3.2;;;2.3;;
37365;SDS011;23239;51.504;7.456;2023-08-01T02:53:00;3.2;;;2.3;;
37365;SDS011;23239;51.504;7.456;2023-08-01T02:54:00;3.2;;;2.3;;
37365;SDS011;23239;51.504;7.456;2023-08-01T02:55:00;3.2;;;2.3;;
37365;SDS011;23239;51.504;7.456;2023-08-01T02:56:00;3.2;;;2.3;;
37365;SDS011;23239;51.504;7.456;2023-08-01T02:57:00;6.6;;;3.4;;
37365;SDS011;23239;51.504;7.456;2023-08-01T02:58:00;6.6;;;3.4;;
37365;SDS011;23239;51.504;7.456;2023-08-01T02:59:00;6.6;;;3.4;;
37365;SDS011;23239;51.504;7.456;2023-08-01T03:00:00;6.6;;;3.4;;
37365;SDS011;23239;51.504;7.456;2023-08-01T03:01:00;6.6;;;3.4;;
37365;SDS011;23239;51.504;7.456;2023-08-01T03:02:00;6.6;;;3.8;;
37365;SDS011;23239;51.504;7.456;2023-08-01T03:03:00;6.6;;;3.8;;
37365;SDS011;23239;51.504;7.456;2023-08-01T03:04:00;6.6;;;3.8;;
37365;SDS011;23239;51.504;7.456;2023-08-01T03:05:00;6.6;;;3.8;;
37365;SDS011;23239;51.504;7.456;2023-08-01T03:06:00;6.6;;;3.8;;
37365;SDS011;23239;51.504;7.456;2023-08-01T03:07:00;6.9;;;4.1;;
37365;SDS011;23239;51.504;7.456;2023-08-01T03:08:00;6.9;;;4.1;;
37365;SDS011;23239;51.504;7.456;2023-08-01T03:09:00;6.9;;;4.1;;
37365;SDS011;23239;51.504;7.456;2023-08-01T03:10:00;6.9;;;4.1;;
37365;SDS011;23239;51.504;7.456;2023-08-01T03:11:00;6.9;;;4.1;;
37365;SDS011;23239;51.504;7.456;2023-08-01T03:12:00;8.4;;;5.7;;
37365;SDS011;23239;51.504;7.456;2023-08-01T03:13:00;8.4;;;5.7;;
37365;SDS011;23239;51.504;7.456;2023-08-01T03:14:00;8.4;;;5.7;;
37365;SDS011;23239;51.504;7.456;2023-08-01T03:15:00;8.4;;;5.7;;
37365;SDS011;23239;51.504;7.456;2023-08-01T03:16:00;8.4;;;5.7;;
37365;SDS011;23239;51.504;7.456;2023-08-01T03:17:00;11.9;;;6.7;;
37365;SDS011;23239;51.504;7.456;2023-08-01T03:18:00;11.9;;;6.7;;
37365;SDS011;23239;51.504;7.456;2023-08-01T03:19:00;11.9;;;6.7;;
37365;SDS011;23239;51.504;7.456;2023-08-01T03:20:00;11.9;;;6.7;;
37365;SDS011;23239;51.504;7.456;2023-08-01T03:21:00;11.9;;;6.7;;
37365;SDS011;23239;51.504;7.456;2023-08-01T03:22:00;10.7;;;7.0;;
37365;SDS011;23239;51.504;7.456;2023-08-01T03:23:00;10.7;;;7.0;;
37365;SDS011;23239;51.504;7.456;2023-08-01T03:24:00;10.7;;;7.0;;
37365;SDS011;23239;51.504;7.456;2023-08-01T03:25:00;10.7;;;7.0;;
37365;SDS011;23239;51.504;7.456;2023-08-01T03:26:00;10.7;;;7.0;;
37365;SDS011;23239;51.504;7.456;2023-08-01T03:27:00;9.6;;;7.6;;
37365;SDS011;23239;51.504;7.456;2023-08-01T03:28:00;9.6;;;7.6;;
37365;SDS011;23239;51.504;7.456;2023-08-01T03:29:00;9.6;;;7.6;;
37365;SDS011;23239;51.504;7.456;2023-08-01T03:30:00;9.6;;;7.6;;
37365;SDS011;23239;51.504;7.456;2023-08-01T03:31:00;9.6;;;7.6;;
37365;SDS011;23239;51.504;7.456;2023-08-01T03:32:00;10.8;;;8.8;;
37365;SDS011;23239;51.504;7.456;2023-08-01T03:33:01;10.8;;;8.8;;
37365;SDS011;23239;51.504;7.456;2023-08-01T03:34:00;10.8;;;8.8;;
37365;SDS011;23239;51.504;7.456;2023-08-01T03:35:00;10.8;;;8.8;;
37365;SDS011;23239;51.504;7.456;2023-08-01T03:36:00;10.8;;;8.8;;
37365;SDS011;23239;51.504;7.456;2023-08-01T03:37:00;12.2;;;10.1;;
37365;SDS011;23239;51.504;7.456;2023-08-01T03:38:00;12.2;;;10.1;;
37365;SDS011;23239;51.504;7.456;2023-08-01T03:39:00;12.2;;;10.1;;
37365;SDS011;23239;51.504;7.456;2023-08-01T03:40:00;12.2;;;10.1;;
37365;SDS011;23239;51.504;7.456;2023-08-01T03:41:00;12.2;;;10.1;;
37365;SDS011;23239;51.504;7.456;2023-08-01T03:42:00;14.9;;;11.8;;
37365;SDS011;23239;51.504;7.456;2023-08-01T03:43:00;14.9;;;11.8;;
37365;SDS011;23239;51.504;7.456;2023-08-01T03:44:00;14.9;;;11.8;;
37365;SDS011;23239;51.504;7.456;2023-08-01T03:45:00;14.9;;;11.8;;
37365;SDS011;23239;51.504;7.456;2023-08-01T03:46:00;14.9;;;11.8;;
37365;SDS011;23239;51.504;7.456;2023-08-01T03:47:00;15.4;;;12.7;;
37365;SDS011;23239;51.504;7.456;2023-08-01T03:48:00;15.4;;;12.7;;
37365;SDS011;23239;51.504;7.456;2023-08-01T03:49:00;15.4;;;12.7;;
37365;SDS011;23239;51.504;7.456;2023-08-01T03:50:00;15.4;;;12.7;;
37365;SDS011;23239;51.504;7.456;2023-08-01T03:51:00;15.4;;;12.7;;
37365;SDS011;23239;51.504;7.456;2023-08-01T03:52:00;19.0;;;15.2;;
37365;SDS011;23239;51.504;7.456;2023-08-01T03:53:00;19.0;;;15.2;;
37365;SDS011;23239;51.504;7.456;2023-08-01T03:54:00;19.0;;;15.2;;
37365;SDS011;23239;51.504;7.456;2023-08-01T03:55:00;19.0;;;15.2;;
37365;SDS011;23239;51.504;7.456;2023-08-01T03:56:00;19.0;;;15.2;;
37365;SDS011;23239;51.504;7.456;2023-08-01T03:57:00;20.9;;;16.0;;
37365;SDS011;23239;51.504;7.456;2023-08-01T03:58:00;20.9;;;16.0;;
37365;SDS011;23239;51.504;7.456;2023-08-01T03:59:00;20.9;;;16.0;;
37365;SDS011;23239;51.504;7.456;2023-08-01T04:00:00;20.9;;;16.0;;
37365;SDS011;23239;51.504;7.456;2023-08-01T04:01:00;20.9;;;16.0;;
37365;SDS011;23239;51.504;7.456;2023-08-01T04:02:00;20.3;;;15.9;;
37365;SDS011;23239;51.504;7.456;2023-08-01T04:03:00;20.3;;;15.9;;
37365;SDS011;23239;51.504;7.456;2023-08-01T04:04:00;20.3;;;15.9;;
37365;SDS011;23239;51.504;7.456;2023-08-01T04:05:00;20.3;;;15.9;;
37365;SDS011;23239;51.504;7.456;2023-08-01T04:06:00;20.3;;;15.9;;
37365;SDS011;23239;51.504;7.456;2023-08-01T04:07:00;19.7;;;16.6;;
37365;SDS011;23239;51.504;7.456;2023-08-01T04:08:01;19.7;;;16.6;;
37365;SDS011;23239;51.504;7.456;2023-08-01T04:09:00;19.7;;;16.6;;
37365;SDS011;23239;51.504;7.456;2023-08-01T04:10:00;19.7;;;16.6;;
37365;SDS011;23239;51.504;7.456;2023-08-01T04:11:00;19.7;;;16.6;;
37365;SDS011;23239;51.504;7.456;2023-08-01T04:12:00;22.9;;;17.5;;
37365;SDS011;23239;51.504;7.456;2023-08-01T04:13:00;22.9;;;17.5;;
37365;SDS011;23239;51.504;7.456;2023-08-01T04:14:00;22.9;;;17.5;;
37365;SDS011;23239;51.504;7.456;2023-08-01T04:15:00;22.9;;;17.5;;
37365;SDS011;23239;51.504;7.456;2023-08-01T04:16:00;22.9;;;17.5;;
37365;SDS011;23239;51.504;7.456;2023-08-01T04:17:00;23.7;;;17.4;;
37365;SDS011;23239;51.504;7.456;2023-08-01T04:18:00;23.7;;;17.4;;
37365;SDS011;23239;51.504;7.456;2023-08-01T04:19:00;23.7;;;17.4;;
37365;SDS011;23239;51.504;7.456;2023-08-01T04:20:00;23.7;;;17.4;;
37365;SDS011;23239;51.504;7.456;2023-08-01T04:21:01;23.7;;;17.4;;
37365;SDS011;23239;51.504;7.456;2023-08-01T04:22:00;20.6;;;17.1;;
37365;SDS011;23239;51.504;7.456;2023-08-01T04:23:00;20.6;;;17.1;;
37365;SDS011;23239;51.504;7.456;2023-08-01T04:24:00;20.6;;;17.1;;
37365;SDS011;23239;51.504;7.456;2023-08-01T04:25:00;20.6;;;17.1;;
37365;SDS011;23239;51.504;7.456;2023-08-01T04:26:00;20.6;;;17.1;;
37365;SDS011;23239;51.504;7.456;2023-08-01T04:27:00;21.7;;;16.1;;
37365;SDS011;23239;51.504;7.456;2023-08-01T04:28:00;21.7;;;16.1;;
37365;SDS011;23239;51.504;7.456;2023-08-01T04:29:00;21.7;;;16.1;;
37365;SDS011;23239;51.504;7.456;2023-08-01T04:30:00;21.7;;;16.1;;
37365;SDS011;23239;51.504;7.456;2023-08-01T04:31:00;21.7;;;16.1;;
37365;SDS011;23239;51.504;7.456;2023-08-01T04:32:00;19.4;;;14.0;;
37365;SDS011;23239;51.504;7.456;2023-08-01T04:33:00;19.4;;;14.0;;
37365;SDS011;23239;51.504;7.456;2023-08-01T04:34:00;19.4;;;14.0;;
37365;SDS011;23239;51.504;7.456;2023-08-01T04:35:00;19.4;;;14.0;;
37365;SDS011;23239;51.504;7.456;2023-08-01T04:36:00;19.4;;;14.0;;
37365;SDS011;23239;51.504;7.456;2023-08-01T04:37:00;20.9;;;16.0;;
37365;SDS011;23239;51.504;7.456;2023-08-01T04:38:00;20.9;;;16.0;;
37365;SDS011;23239;51.504;7.456;2023-08-01T04:39:00;20.9;;;16.0;;
37365;SDS011;23239;51.504;7.456;2023-08-01T04:40:00;20.9;;;16.0;;
37365;SDS011;23239;51.504;7.456;2023-08-01T04:41:00;20.9;;;16.0;;
37365;SDS011;23239;51.504;7.456;2023-08-01T04:42:00;21.2;;;17.0;;
37365;SDS011;23239;51.504;7.456;2023-08-01T04:43:00;21.2;;;17.0;;
37365;SDS011;23239;51.504;7.456;2023-08-01T04:44:00;21.2;;;17.0;;
37365;SDS011;23239;51.504;7.456;2023-08-01T04:45:00;21.2;;;17.0;;
37365;SDS011;23239;51.504;7.456;2023-08-01T04:46:00;21.2;;;17.0;;
37365;SDS011;23239;51.504;7.456;2023-08-01T04:47:00;23.6;;;17.3;;
37365;SDS011;23239;51.504;7.456;2023-08-01T04:48:00;23.6;;;17.3;;
37365;SDS011;23239;51.504;7.456;2023-08-01T04:49:00;23.6;;;17.3;;
37365;SDS011;23239;51.504;7.456;2023-08-01T04:50:00;23.6;;;17.3;;
37365;SDS011;23239;51.504;7.456;2023-08-01T04:51:00;23.6;;;17.3;;
37365;SDS011;23239;51.504;7.456;2023-08-01T04:52:00;23.5;;;16.2;;
37365;SDS011;23239;51.504;7.456;2023-08-01T04:53:00;23.5;;;16.2;;
37365;SDS011;23239;51.504;7.456;2023-08-01T04:54:00;23.5;;;16.2;;
37365;SDS011;23239;51.504;7.456;2023-08-01T04:55:00;23.5;;;16.2;;
37365;SDS011;23239;51.504;7.456;2023-08-01T04:56:00;23.5;;;16.2;;
37365;SDS011;23239;51.504;7.456;2023-08-01T04:57:00;27.9;;;16.3;;
37365;SDS011;23239;51.504;7.456;2023-08-01T04:58:00;27.9;;;16.3;;
37365;SDS011;23239;51.504;7.456;2023-08-01T04:59:00;27.9;;;16.3;;
37365;SDS011;23239;51.504;7.456;2023-08-01T05:00:00;27.9;;;16.3;;
37365;SDS011;23239;51.504;7.456;2023-08-01T05:01:00;27.9;;;16.3;;
37365;SDS011;23239;51.504;7.456;2023-08-01T05:02:00;19.7;;;14.3;;
37365;SDS011;23239;51.504;7.456;2023-08-01T05:03:00;19.7;;;14.3;;
37365;SDS011;23239;51.504;7.456;2023-08-01T05:04:00;19.7;;;14.3;;
37365;SDS011;23239;51.504;7.456;2023-08-01T05:05:00;19.7;;;14.3;;
37365;SDS011;23239;51.504;7.456;2023-08-01T05:06:00;19.7;;;14.3;;
37365;SDS011;23239;51.504;7.456;2023-08-01T05:07:00;15.9;;;10.2;;
37365;SDS011;23239;51.504;7.456;2023-08-01T05:08:00;15.9;;;10.2;;
37365;SDS011;23239;51.504;7.456;2023-08-01T05:09:00;15.9;;;10.2;;
37365;SDS011;23239;51.504;7.456;2023-08-01T05:10:00;15.9;;;10.2;;
37365;SDS011;23239;51.504;7.456;2023-08-01T05:11:00;15.9;;;10.2;;
37365;SDS011;23239;51.504;7.456;2023-08-01T05:12:01;16.0;;;10.1;;
37365;SDS011;23239;51.504;7.456;2023-08-01T05:13:00;16.0;;;10.1;;
37365;SDS011;23239;51.504;7.456;2023-08-01T05:14:00;16.0;;;10.1;;
37365;SDS011;23239;51.504;7.456;2023-08-01T05:15:00;16.0;;;10.1;;
37365;SDS011;23239;51.504;7.456;2023-08-01T05:16:00;16.0;;;10.1;;
37365;SDS011;23239;51.504;7.456;2023-08-01T05:17:00;14.0;;;8.7;;
37365;SDS011;23239;51.504;7.456;2023-08-01T05:18:00;14.0;;;8.7;;
37365;SDS011;23239;51.504;7.456;2023-08-01T05:19:00;14.0;;;8.7;;
37365;SDS011;23239;51.504;7.456;2023-08-01T05:20:00;14.0;;;8.7;;
37365;SDS011;23239;51.504;7.456;2023-08-01T05:21:00;14.0;;;8.7;;
37365;SDS011;23239;51.504;7.456;2023-08-01T05:22:00;14.1;;;9.2;;
37365;SDS011;23239;51.504;7.456;2023-08-01T05:23:00;14.1;;;9.2;;
37365;SDS011;23239;51.504;7.456;2023-08-01T05:24:00;14.1;;;9.2;;
37365;SDS011;23239;51.504;7.456;2023-08-01T05:25:00;14.1;;;9.2;;
37365;SDS011;23239;51.504;7.456;2023-08-01T05:26:00;14.1;;;9.2;;
37365;SDS011;23239;51.504;7.456;2023-08-01T05:27:00;15.9;;;9.3;;
37365;SDS011;23239;51.504;7.456;2023-08-01T05:28:00;15.9;;;9.3;;
37365;SDS011;23239;51.504;7.456;2023-08-01T05:29:00;15.9;;;9.3;;
37365;SDS011;23239;51.504;7.456;2023-08-01T05:30:00;15.9;;;9.3;;
37365;SDS011;23239;51.504;7.456;2023-08-01T05:31:00;15.9;;;9.3;;
37365;SDS011;23239;51.504;7.456;2023-08-01T05:32:00;15.3;;;9.1;;
37365;SDS011;23239;51.504;7.456;2023-08-01T05:33:00;15.3;;;9.1;;
37365;SDS011;23239;51.504;7.456;2023-08-01T05:34:00;15.3;;;9.1;;
37365;SDS011;23239;51.504;7.456;2023-08-01T05:35:00;15.3;;;9.1;;
37365;SDS011;23239;51.504;7.456;2023-08-01T05:36:00;15.3;;;9.1;;
37365;SDS011;23239;51.504;7.456;2023-08-01T05:37:00;16.3;;;8.8;;
37365;SDS011;23239;51.504;7.456;2023-08-01T05:38:00;16.3;;;8.8;;
37365;SDS011;23239;51.504;7.456;2023-08-01T05:39:00;16.3;;;8.8;;
37365;SDS011;23239;51.504;7.456;2023-08-01T05:40:00;16.3;;;8.8;;
37365;SDS011;23239;51.504;7.456;2023-08-01T05:41:00;16.3;;;8.8;;
37365;SDS011;23239;51.504;7.456;2023-08-01T05:42:00;16.5;;;9.9;;
37365;SDS011;23239;51.504;7.456;2023-08-01T05:43:00;16.5;;;9.9;;
37365;SDS011;23239;51.504;7.456;2023-08-01T05:44:00;16.5;;;9.9;;
37365;SDS011;23239;51.504;7.456;2023-08-01T05:45:00;16.5;;;9.9;;
37365;SDS011;23239;51.504;7.456;2023-08-01T05:46:00;16.5;;;9.9;;
37365;SDS011;23239;51.504;7.456;2023-08-01T05:47:00;14.9;;;8.9;;
37365;SDS011;23239;51.504;7.456;2023-08-01T05:48:00;14.9;;;8.9;;
37365;SDS011;23239;51.504;7.456;2023-08-01T05:49:00;14.9;;;8.9;;
37365;SDS011;23239;51.504;7.456;2023-08-01T05:50:00;14.9;;;8.9;;
37365;SDS011;23239;51.504;7.456;2023-08-01T05:51:00;14.9;;;8.9;;
37365;SDS011;23239;51.504;7.456;2023-08-01T05:52:00;16.6;;;9.1;;
37365;SDS011;23239;51.504;7.456;2023-08-01T05:53:00;16.6;;;9.1;;
37365;SDS011;23239;51.504;7.456;2023-08-01T05:54:00;16.6;;;9.1;;
37365;SDS011;23239;51.504;7.456;2023-08-01T05:55:00;16.6;;;9.1;;
37365;SDS011;23239;51.504;7.456;2023-08-01T05:56:00;16.6;;;9.1;;
37365;SDS011;23239;51.504;7.456;2023-08-01T05:57:00;19.1;;;10.8;;
37365;SDS011;23239;51.504;7.456;2023-08-01T05:58:00;19.1;;;10.8;;
37365;SDS011;23239;51.504;7.456;2023-08-01T05:59:00;19.1;;;10.8;;
37365;SDS011;23239;51.504;7.456;2023-08-01T06:00:00;19.1;;;10.8;;
37365;SDS011;23239;51.504;7.456;2023-08-01T06:01:00;19.1;;;10.8;;
37365;SDS011;23239;51.504;7.456;2023-08-01T06:02:00;18.7;;;11.6;;
37365;SDS011;23239;51.504;7.456;2023-08-01T06:03:00;18.7;;;11.6;;
37365;SDS011;23239;51.504;7.456;2023-08-01T06:04:00;18.7;;;11.6;;
37365;SDS011;23239;51.504;7.456;2023-08-01T06:05:00;18.7;;;11.6;;
37365;SDS011;23239;51.504;7.456;2023-08-01T06:06:00;18.7;;;11.6;;
37365;SDS011;23239;51.504;7.456;2023-08-01T06:07:00;18.5;;;12.2;;
37365;SDS011;23239;51.504;7.456;2023-08-01T06:08:00;18.5;;;12.2;;